• Join FlightAware (Why Join?)
  • Login
  • US Flag 
06:16AM EST


 

Airport Tracker/Info


-or-


 

Live Flight TrackerFlight Track Log ✈ ASQ6115 ✈ 17-Jun-2013 ✈ KMFE - KIAH

Flight Track Log - Related Links

Times and Time Zones

All times are in EDT time to prevent confusion due to time zone crossing. See the ASQ6115 flight status page for this flight to view local times or setup timezone preferences in your user account.

Time Position Orientation Groundspeed Altitude Reporting Facility
EDT Latitude Longitude Course Direction KTS MPH feet Rate Location/Type
03:40PM 26.1589 -98.2008 91° East 159 183 1,800  Level Houston Center
03:42PM 26.2397 -98.1214 41° Northeast 230 265 4,700 1,680 Climbing Houston Center
03:42PM 26.2522 -98.1094 41° Northeast 254 292 5,100 2,100 Climbing Houston Center
03:43PM 26.2992 -98.0578 45° Northeast 269 310 6,900 1,980 Climbing Houston Center
03:44PM 26.3544 -97.9986 44° Northeast 273 314 8,800 1,620 Climbing Houston Center
03:45PM 26.5665 -98.0427 22° Northeast  Level FlightAware Approximate
03:45PM 26.4139 -97.9356 44° Northeast 291 335 10,300  Level Houston Center
03:46PM 26.4844 -97.8589 44° Northeast 323 372 11,000 780 Climbing Houston Center
03:47PM 26.5561 -97.7797 45° Northeast 355 409 12,000 1,020 Climbing Houston Center
03:48PM 26.6314 -97.6956 45° Northeast 377 434 13,200 1,020 Climbing Houston Center
03:49PM 26.7031 -97.6136 46° Northeast 369 425 14,200 840 Climbing Houston Center
03:50PM 26.7742 -97.5392 43° Northeast 365 420 15,000 840 Climbing Houston Center
03:51PM 26.8956 -97.5219 North 403 464 16,000 960 Climbing Houston Center
03:52PM 27.0003 -97.5122 North 381 438 17,000 960 Climbing Houston Center
03:53PM 27.1144 -97.5050 North 363 418 18,100 960 Climbing Houston Center
03:54PM 27.2078 -97.4981 North 355 409 19,100 960 Climbing Houston Center
03:55PM 27.3181 -97.4889 North 376 433 20,100 960 Climbing Houston Center
03:56PM 27.4244 -97.4814 North 381 438 21,100 1,080 Climbing Houston Center
03:57PM 27.5508 -97.4708 North 381 438 22,400 1,080 Climbing Houston Center
03:58PM 27.6567 -97.4628 North 380 437 23,400 960 Climbing Houston Center
03:59PM 27.7611 -97.4550 North 378 435 24,400 960 Climbing Houston Center
04:00PM 27.8644 -97.4469 North 375 432 25,500 960 Climbing Houston Center
04:01PM 27.9625 -97.4008 23° Northeast 373 429 26,500 720 Climbing Houston Center
04:02PM 28.0506 -97.3325 34° Northeast 381 438 27,000 240 Climbing Houston Center
04:03PM 28.1622 -97.2461 34° Northeast 400 460 27,000  Level Houston Center
04:05PM 28.2617 -97.1700 34° Northeast 422 486 27,000  Level Houston Center
04:06PM 28.3622 -97.0919 34° Northeast 435 501 27,000  Level Houston Center
04:07PM 28.4650 -97.0136 34° Northeast 442 509 27,000  Level Houston Center
04:08PM 28.5681 -96.9328 35° Northeast 450 518 27,000  Level Houston Center
04:09PM 28.6728 -96.8522 34° Northeast 454 522 27,000 -780 Level Houston Center
04:10PM 28.7978 -96.7544 34° Northeast 456 525 25,500 -1,500 Descending Houston Center
04:11PM 28.9003 -96.6750 34° Northeast 451 519 24,000 -1,440 Descending Houston Center
04:12PM 29.0011 -96.5958 34° Northeast 445 512 22,500 -1,680 Descending Houston Center
04:13PM 29.1006 -96.5194 34° Northeast 440 506 20,500 -2,160 Descending Houston Center
04:14PM 29.1956 -96.4425 35° Northeast 422 486 18,500 -2,160 Descending Houston Center
04:15PM 29.3086 -96.3550 34° Northeast 414 476 16,100 -1,980 Descending Houston Center
04:16PM 29.3994 -96.2833 34° Northeast 404 465 14,100 -1,860 Descending Houston Center
04:17PM 29.4944 -96.2083 34° Northeast 391 450 12,300 -1,080 Descending Houston Center
04:18PM 29.5686 -96.1183 47° Northeast 355 409 12,000 -780 Descending Houston Center
04:19PM 29.6192 -96.0214 59° Northeast 352 405 10,800 -1,020 Descending Houston Center
04:20PM 29.6589 -95.9233 65° Northeast 321 369 10,000 -420 Descending Houston Center
04:21PM 29.7053 -95.8314 60° Northeast 339 390 10,000  Level Houston Center
04:22PM 29.7664 -95.7297 55° Northeast 345 397 10,000 -540 Level Houston Center
04:23PM 29.8044 -95.6472 62° Northeast 294 338 8,900 -1,260 Descending Houston Center
04:24PM 29.8444 -95.5694 59° Northeast 282 325 7,400 -1,500 Descending Houston Center
04:25PM 29.8811 -95.4956 60° Northeast 276 318 6,100 -720 Descending Houston Center
04:26PM 29.8956 -95.3997 80° East 279 321 6,000 -60 Descending Houston Center
04:27PM 29.8967 -95.3200 89° East 270 311 6,000  Level Houston Center
04:28PM 29.8975 -95.2381 89° East 235 270 6,000 -300 Level Houston Center
04:29PM 29.8964 -95.1586 91° East 238 274 5,500 -960 Descending Houston Center
04:30PM 29.9042 -95.0853 83° East 240 276 4,100 -1,380 Descending Houston Center
04:31PM 29.9639 -95.0950 352° North 232 267 2,700 -1,320 Descending Houston Center
04:31PM 29.9703 -95.1033 312° West 228 262 2,500 -660 Descending Houston Center
04:32PM 29.9936 -95.1661 293° West 231 266 2,000 -480 Descending Houston Center
04:33PM 29.9933 -95.2311 270° West 223 257 1,700 -420 Descending Houston Center
04:34PM 29.9933 -95.2403 270° West 223 257 1,500 -840 Descending Houston Center
04:34PM 29.9942 -95.2867 271° West 157 181 900 -780 Descending Houston Center
04:35PM 29.9942 -95.2944 270° West 194 223 700 -480 Descending Houston Center
04:36PM 29.9939 -95.3422 270° West 163 188 300 -420 Descending Houston Center